Time;durP1;ratioP1;P1;durP2;ratioP2;P2;SDS_P1;SDS_P2;PMS_P1;PMS_P2;Temp;Humidity;BMP_temperature;BMP_pressure;BME280_temperature;BME280_humidity;BME280_pressure;Samples;Min_cycle;Max_cycle;Signal;HPM_P1;HPM_P2
2023/04/07 00:01:00;;;;;;;87.45;30.65;;;8.30;99.90;;;;;;5015526;28;20633;-83
2023/04/07 00:03:26;;;;;;;87.90;29.37;;;8.30;99.90;;;;;;5016898;28;20192;-83
2023/04/07 00:05:51;;;;;;;85.27;30.10;;;8.40;99.90;;;;;;5039110;23;20216;-77
2023/04/07 00:08:17;;;;;;;89.10;30.80;;;8.40;99.90;;;;;;5033135;28;20161;-77
2023/04/07 00:10:43;;;;;;;85.80;29.37;;;8.40;99.90;;;;;;5033032;28;20201;-77
2023/04/07 00:13:08;;;;;;;81.97;29.90;;;8.40;99.90;;;;;;5033220;28;20316;-77
2023/04/07 00:15:34;;;;;;;83.20;27.33;;;8.40;99.90;;;;;;5033545;28;20189;-77
2023/04/07 00:18:00;;;;;;;82.70;26.73;;;8.40;99.90;;;;;;5035746;28;20625;-77
2023/04/07 00:20:26;;;;;;;84.73;30.77;;;8.40;99.90;;;;;;5037709;28;20172;-76
2023/04/07 00:22:51;;;;;;;82.17;27.70;;;8.40;99.90;;;;;;5037096;28;20426;-77
2023/04/07 00:25:17;;;;;;;84.10;27.07;;;8.40;99.90;;;;;;5037286;28;20157;-77
2023/04/07 00:27:43;;;;;;;85.07;28.90;;;8.40;99.90;;;;;;5037045;28;20161;-77
2023/04/07 00:30:08;;;;;;;83.47;29.13;;;8.40;99.90;;;;;;5036945;28;20603;-77
2023/04/07 00:32:34;;;;;;;85.83;26.60;;;8.40;99.90;;;;;;5037134;28;20714;-76
2023/04/07 00:35:00;;;;;;;84.30;27.93;;;8.40;99.90;;;;;;5036877;28;20396;-77
2023/04/07 00:37:26;;;;;;;83.87;26.40;;;8.50;99.90;;;;;;5035602;28;20541;-77
2023/04/07 00:39:51;;;;;;;82.60;24.17;;;8.50;99.90;;;;;;5037140;28;20235;-77
2023/04/07 00:42:18;;;;;;;80.83;23.37;;;8.50;99.90;;;;;;5036756;28;20215;-77
2023/04/07 00:44:44;;;;;;;82.63;27.40;;;8.60;99.90;;;;;;5036639;28;20184;-77
2023/04/07 00:47:10;;;;;;;83.63;23.30;;;8.50;99.90;;;;;;5036609;28;20648;-77
2023/04/07 00:49:38;;;;;;;85.37;24.17;;;8.60;99.90;;;;;;5036642;28;20465;-77
2023/04/07 00:52:07;;;;;;;81.15;21.75;;;8.60;99.90;;;;;;5036572;28;20488;-77
2023/04/07 00:54:33;;;;;;;82.20;22.50;;;8.60;99.90;;;;;;5036496;28;20192;-77
2023/04/07 00:57:00;;;;;;;79.77;20.17;;;8.60;99.90;;;;;;5035277;28;20165;-77
2023/04/07 00:59:28;;;;;;;78.72;20.30;;;8.60;99.90;;;;;;5035176;28;20271;-77
2023/04/07 01:02:09;;;;;;;79.45;19.88;;;8.60;99.90;;;;;;5035173;28;20256;-77
2023/04/07 01:05:06;;;;;;;78.90;20.38;;;8.60;99.90;;;;;;5036348;28;20188;-77
2023/04/07 01:07:54;;;;;;;83.05;22.23;;;8.60;99.90;;;;;;5035124;28;20219;-77
2023/04/07 01:10:46;;;;;;;91.18;22.98;;;8.60;99.90;;;;;;5036298;28;20246;-77
2023/04/07 01:13:26;;;;;;;85.75;23.52;;;8.60;99.90;;;;;;5036150;28;20280;-76
2023/04/07 01:15:55;;;;;;;81.57;21.77;;;8.60;99.90;;;;;;5036770;28;20573;-77
2023/04/07 01:18:33;;;;;;;78.65;20.70;;;8.60;99.90;;;;;;5036299;28;20651;-77
2023/04/07 01:21:18;;;;;;;79.22;21.10;;;8.60;99.90;;;;;;5036360;28;20667;-77
2023/04/07 01:23:55;;;;;;;80.22;19.80;;;8.70;99.90;;;;;;5036079;28;20181;-77
2023/04/07 01:26:26;;;;;;;81.00;19.98;;;8.80;99.90;;;;;;5035977;28;20551;-77
2023/04/07 01:29:06;;;;;;;81.55;20.85;;;8.80;99.90;;;;;;5035073;28;20537;-77
2023/04/07 01:31:33;;;;;;;82.97;22.30;;;8.80;99.90;;;;;;5035902;28;20157;-77
2023/04/07 01:34:00;;;;;;;82.38;23.13;;;8.80;99.90;;;;;;5034501;28;20272;-77
2023/04/07 01:36:28;;;;;;;79.13;21.55;;;8.80;99.90;;;;;;5036046;28;20161;-77
2023/04/07 01:38:54;;;;;;;84.30;24.27;;;8.90;99.90;;;;;;5035986;28;20181;-76
2023/04/07 01:41:22;;;;;;;89.57;23.33;;;8.90;99.90;;;;;;5035701;28;20165;-77
2023/04/07 01:43:48;;;;;;;80.65;21.02;;;8.90;99.90;;;;;;5035581;28;20189;-77
2023/04/07 01:46:14;;;;;;;81.18;22.85;;;8.90;99.90;;;;;;5035639;28;20256;-76
2023/04/07 01:48:41;;;;;;;82.55;20.40;;;8.90;99.90;;;;;;5035806;28;20526;-77
2023/04/07 01:51:10;;;;;;;84.57;24.83;;;8.90;99.90;;;;;;5035510;28;20203;-76
2023/04/07 01:53:37;;;;;;;84.18;25.65;;;8.90;99.90;;;;;;5035456;28;20576;-76
2023/04/07 02:00:54;;;;;;;86.17;24.27;;;9.00;99.90;;;;;;5224439;22;21040;-77
2023/04/07 02:03:26;;;;;;;88.13;24.13;;;9.10;99.90;;;;;;5181970;23;20243;-77
2023/04/07 02:05:56;;;;;;;87.82;24.33;;;9.10;99.90;;;;;;5035303;28;20153;-76
2023/04/07 02:08:26;;;;;;;85.18;22.63;;;9.00;99.90;;;;;;5035219;28;20220;-76
2023/04/07 02:10:54;;;;;;;89.85;26.92;;;9.00;99.90;;;;;;5035368;28;20574;-76
2023/04/07 02:13:20;;;;;;;90.63;27.80;;;9.00;99.90;;;;;;5035066;28;20184;-76
2023/04/07 02:15:48;;;;;;;89.32;26.20;;;9.00;99.90;;;;;;5035321;28;20257;-76
2023/04/07 02:18:15;;;;;;;93.22;29.08;;;9.00;99.90;;;;;;5035343;28;20161;-76
2023/04/07 02:20:42;;;;;;;91.32;26.67;;;9.10;99.90;;;;;;5036075;28;20231;-76
2023/04/07 02:23:09;;;;;;;91.97;29.50;;;9.10;99.90;;;;;;5034901;28;20239;-76
2023/04/07 02:25:37;;;;;;;98.43;24.83;;;9.10;99.90;;;;;;5034880;28;20165;-77
2023/04/07 02:28:03;;;;;;;94.25;28.10;;;9.10;99.90;;;;;;5033593;28;20176;-76
2023/04/07 02:30:29;;;;;;;94.22;29.60;;;9.10;99.90;;;;;;5034693;28;20189;-76
2023/04/07 02:32:55;;;;;;;100.40;29.10;;;9.10;99.90;;;;;;5034959;28;20188;-76
2023/04/07 02:35:21;;;;;;;93.07;26.77;;;9.20;99.90;;;;;;5033451;28;20532;-76
2023/04/07 02:37:47;;;;;;;97.80;29.10;;;9.20;99.90;;;;;;5034625;28;20471;-77
2023/04/07 02:40:13;;;;;;;94.70;27.70;;;9.20;99.90;;;;;;5034388;28;20739;-76
2023/04/07 02:42:39;;;;;;;94.57;29.73;;;9.20;99.90;;;;;;5034447;28;20396;-76
2023/04/07 02:45:05;;;;;;;93.45;27.38;;;9.20;99.90;;;;;;5034577;28;20169;-76
2023/04/07 02:47:33;;;;;;;94.80;26.38;;;9.20;99.90;;;;;;5034415;28;20188;-76
2023/04/07 02:49:58;;;;;;;91.53;25.40;;;9.20;99.90;;;;;;5034344;28;20212;-76
2023/04/07 02:52:24;;;;;;;95.17;27.20;;;9.20;99.90;;;;;;5034329;28;20627;-76
2023/04/07 02:54:51;;;;;;;98.72;27.80;;;9.20;99.90;;;;;;5034573;28;20165;-76
2023/04/07 02:57:17;;;;;;;96.57;24.98;;;9.20;99.90;;;;;;5034533;28;20189;-76
2023/04/07 02:59:42;;;;;;;94.90;26.00;;;9.20;99.90;;;;;;5034572;28;20546;-77
2023/04/07 03:02:08;;;;;;;97.67;27.13;;;9.20;99.90;;;;;;5034046;28;20641;-77
2023/04/07 03:04:36;;;;;;;96.50;27.30;;;9.20;99.90;;;;;;5034081;28;20275;-77
2023/04/07 03:07:02;;;;;;;98.00;27.90;;;9.20;99.90;;;;;;5032919;28;20162;-77
2023/04/07 03:09:28;;;;;;;103.50;28.83;;;9.20;99.90;;;;;;5034002;28;20700;-76
2023/04/07 03:11:53;;;;;;;101.33;27.70;;;9.20;99.90;;;;;;5033995;28;20188;-76
2023/04/07 03:14:19;;;;;;;100.63;28.97;;;9.20;99.90;;;;;;5033916;28;20265;-76
2023/04/07 03:16:45;;;;;;;104.97;26.97;;;9.20;99.90;;;;;;5034253;28;20158;-77
2023/04/07 03:19:15;;;;;;;100.67;27.50;;;9.10;99.90;;;;;;5033939;28;20180;-77
2023/04/07 03:21:40;;;;;;;99.35;27.40;;;9.10;99.90;;;;;;5034167;28;20166;-76
2023/04/07 03:24:06;;;;;;;96.70;25.70;;;9.20;99.90;;;;;;5033770;28;20282;-77
2023/04/07 03:26:32;;;;;;;98.68;26.88;;;9.10;99.90;;;;;;5033763;28;20164;-77
2023/04/07 03:28:58;;;;;;;102.07;29.70;;;9.10;99.90;;;;;;5033739;28;20192;-77
2023/04/07 03:31:24;;;;;;;96.43;27.83;;;9.10;99.90;;;;;;5033700;28;20649;-77
2023/04/07 03:33:49;;;;;;;105.35;27.83;;;9.10;99.90;;;;;;5032284;28;20262;-76
2023/04/07 03:36:17;;;;;;;101.93;28.77;;;9.10;99.90;;;;;;5033607;28;20169;-77
2023/04/07 03:38:43;;;;;;;102.40;28.92;;;9.10;99.90;;;;;;5033508;28;20615;-77
2023/04/07 03:41:11;;;;;;;102.28;28.20;;;9.10;99.90;;;;;;5033527;28;20172;-77
2023/04/07 03:43:37;;;;;;;99.22;29.20;;;9.10;99.90;;;;;;5033349;28;20192;-76
2023/04/07 03:46:03;;;;;;;100.17;27.23;;;9.10;99.90;;;;;;5033720;28;20161;-76
2023/04/07 03:48:28;;;;;;;103.23;28.53;;;9.10;99.90;;;;;;5033451;28;20211;-76
2023/04/07 03:50:54;;;;;;;103.30;25.00;;;9.10;99.90;;;;;;5033275;28;20275;-76
2023/04/07 03:53:20;;;;;;;102.57;27.40;;;9.00;99.90;;;;;;5032709;28;20185;-76
2023/04/07 03:55:46;;;;;;;104.37;29.00;;;9.10;99.90;;;;;;5033598;28;20165;-76
2023/04/07 03:58:12;;;;;;;102.37;26.70;;;9.10;99.90;;;;;;5034132;28;20196;-77
2023/04/07 04:00:38;;;;;;;101.20;25.95;;;9.00;99.90;;;;;;5033838;28;20878;-76
2023/04/07 04:03:04;;;;;;;104.83;29.47;;;9.00;99.90;;;;;;5033027;28;20236;-76
2023/04/07 04:05:30;;;;;;;94.40;23.30;;;9.00;99.90;;;;;;5031959;28;20420;-76
2023/04/07 04:07:55;;;;;;;96.27;27.20;;;9.00;99.90;;;;;;5033740;28;20169;-76
2023/04/07 04:10:21;;;;;;;101.07;25.60;;;9.00;99.90;;;;;;5033105;28;20185;-76
2023/04/07 04:12:47;;;;;;;98.00;26.60;;;9.00;99.90;;;;;;5033064;28;20656;-76
2023/04/07 04:15:14;;;;;;;100.40;28.38;;;8.90;99.90;;;;;;5033097;28;20400;-76
2023/04/07 04:17:41;;;;;;;103.55;27.95;;;9.00;99.90;;;;;;5033396;28;20164;-77
2023/04/07 04:20:07;;;;;;;105.22;30.52;;;9.00;99.90;;;;;;5033080;28;20172;-77
2023/04/07 04:22:33;;;;;;;99.78;27.05;;;9.00;99.90;;;;;;5033060;28;20161;-76
2023/04/07 04:24:59;;;;;;;105.00;30.57;;;9.10;99.90;;;;;;5033289;28;20528;-76
2023/04/07 04:27:25;;;;;;;99.95;28.35;;;9.00;99.90;;;;;;5031725;28;20858;-76
2023/04/07 04:29:51;;;;;;;103.50;30.17;;;9.00;99.90;;;;;;5032973;28;20327;-76
2023/04/07 04:32:16;;;;;;;111.17;29.57;;;9.00;99.90;;;;;;5032959;28;20431;-76
2023/04/07 04:34:42;;;;;;;101.37;26.50;;;8.90;99.90;;;;;;5033134;28;20185;-76
2023/04/07 04:37:08;;;;;;;103.40;28.13;;;8.90;99.90;;;;;;5032909;28;20244;-76
2023/04/07 04:39:34;;;;;;;101.37;27.67;;;8.90;99.90;;;;;;5032916;28;20250;-76
2023/04/07 04:42:00;;;;;;;100.20;27.10;;;8.90;99.90;;;;;;5031606;28;20416;-76
2023/04/07 04:44:26;;;;;;;99.88;28.65;;;8.90;99.90;;;;;;5032758;28;20426;-76
2023/04/07 04:46:52;;;;;;;100.10;24.50;;;8.90;99.90;;;;;;5032799;28;20157;-76
2023/04/07 04:49:18;;;;;;;96.57;26.17;;;8.90;99.90;;;;;;5032770;28;20272;-76
2023/04/07 04:51:45;;;;;;;100.13;27.77;;;8.90;99.90;;;;;;5032865;28;20406;-76
2023/04/07 04:54:10;;;;;;;96.07;26.58;;;8.90;99.90;;;;;;5187325;22;21001;-78
2023/04/07 04:56:36;;;;;;;102.07;27.07;;;8.80;99.90;;;;;;5032913;28;20193;-75
2023/04/07 04:59:03;;;;;;;96.07;24.27;;;8.90;99.90;;;;;;5033126;28;20637;-75
2023/04/07 05:01:29;;;;;;;97.25;27.92;;;8.80;99.90;;;;;;5031505;28;20208;-76
2023/04/07 05:03:55;;;;;;;101.30;27.45;;;8.80;99.90;;;;;;5034884;28;20613;-76
2023/04/07 05:06:21;;;;;;;96.03;24.27;;;8.90;99.90;;;;;;5036387;28;20244;-76
2023/04/07 05:08:46;;;;;;;97.65;25.95;;;8.90;99.90;;;;;;5036229;28;20400;-75
2023/04/07 05:11:12;;;;;;;100.60;25.07;;;8.90;99.90;;;;;;5036563;28;20678;-76
2023/04/07 05:13:38;;;;;;;99.57;26.00;;;8.90;99.90;;;;;;5036303;28;20571;-76
2023/04/07 05:16:04;;;;;;;93.80;23.93;;;8.90;99.90;;;;;;5036203;28;20165;-76
2023/04/07 05:18:30;;;;;;;99.13;25.33;;;8.90;99.90;;;;;;5036716;28;20295;-75
2023/04/07 05:20:55;;;;;;;90.60;20.47;;;8.90;99.90;;;;;;5036381;28;20660;-76
2023/04/07 05:23:21;;;;;;;97.00;23.30;;;8.90;99.90;;;;;;5036288;28;20189;-76
2023/04/07 05:25:47;;;;;;;96.60;22.93;;;8.90;99.90;;;;;;5035988;28;20176;-75
2023/04/07 05:28:12;;;;;;;93.27;22.87;;;8.90;99.90;;;;;;5035976;28;20650;-76
2023/04/07 05:30:38;;;;;;;98.30;24.77;;;8.90;99.90;;;;;;5035818;28;20668;-75
2023/04/07 05:33:06;;;;;;;94.20;23.27;;;8.90;99.90;;;;;;5036061;28;20189;-76
2023/04/07 05:35:32;;;;;;;102.78;23.60;;;8.90;99.90;;;;;;5035798;28;20165;-75
2023/04/07 05:37:58;;;;;;;98.97;23.47;;;8.90;99.90;;;;;;5036375;28;20517;-75
2023/04/07 05:40:24;;;;;;;95.00;24.20;;;8.90;99.90;;;;;;5036020;28;20165;-75
2023/04/07 05:42:49;;;;;;;96.67;23.30;;;9.00;99.90;;;;;;5034380;28;20188;-76
2023/04/07 05:45:15;;;;;;;95.20;22.80;;;9.00;99.90;;;;;;5035653;28;20407;-76
2023/04/07 05:47:41;;;;;;;100.87;22.23;;;8.90;99.90;;;;;;5035592;28;20169;-75
2023/04/07 05:50:07;;;;;;;101.20;23.30;;;9.00;99.90;;;;;;5035695;28;20231;-75
2023/04/07 05:52:32;;;;;;;99.20;22.23;;;9.00;99.90;;;;;;5035500;28;20215;-75
2023/04/07 05:54:58;;;;;;;94.37;22.83;;;9.00;99.90;;;;;;5035523;28;20587;-75
2023/04/07 05:57:26;;;;;;;94.03;20.70;;;9.00;99.90;;;;;;5035789;28;20283;-78
2023/04/07 05:59:51;;;;;;;93.78;21.63;;;9.10;99.90;;;;;;5121109;22;20400;-78
2023/04/07 06:02:17;;;;;;;94.53;21.50;;;9.00;99.90;;;;;;5015469;28;20192;-76
2023/04/07 06:04:43;;;;;;;93.20;21.10;;;9.00;99.90;;;;;;5015448;28;20213;-75
2023/04/07 06:07:11;;;;;;;93.83;20.20;;;9.00;99.90;;;;;;5105859;23;20223;-83
2023/04/07 06:09:37;;;;;;;94.65;19.17;;;9.00;99.90;;;;;;5036338;28;20204;-82
2023/04/07 06:12:05;;;;;;;89.47;19.73;;;9.00;99.90;;;;;;5037181;28;20532;-82
2023/04/07 06:14:31;;;;;;;92.78;21.67;;;9.00;99.90;;;;;;5035367;28;20204;-83
2023/04/07 06:16:56;;;;;;;92.73;20.77;;;8.90;99.90;;;;;;5037394;28;20161;-83
2023/04/07 06:19:22;;;;;;;93.37;20.17;;;8.90;99.90;;;;;;5036016;28;20239;-83
2023/04/07 06:21:48;;;;;;;89.00;18.40;;;8.90;99.90;;;;;;5037211;28;20221;-83
2023/04/07 06:24:13;;;;;;;87.67;17.83;;;8.90;99.90;;;;;;5036726;28;20185;-83
2023/04/07 06:26:40;;;;;;;88.90;18.57;;;9.00;99.90;;;;;;5036878;28;20240;-82
2023/04/07 06:29:06;;;;;;;86.97;16.52;;;9.10;99.90;;;;;;5035333;28;20664;-83
2023/04/07 06:31:40;;;;;;;82.87;14.67;;;9.10;99.90;;;;;;5036780;28;20172;-82
2023/04/07 06:34:06;;;;;;;85.20;15.98;;;9.10;99.90;;;;;;5035152;28;20438;-83
2023/04/07 06:36:32;;;;;;;81.90;14.40;;;9.00;99.90;;;;;;5036626;28;20190;-83
2023/04/07 06:38:58;;;;;;;84.45;15.75;;;9.00;99.90;;;;;;5036793;28;20244;-83
2023/04/07 06:41:24;;;;;;;88.20;16.83;;;9.10;99.90;;;;;;5035168;28;20211;-82
2023/04/07 06:43:52;;;;;;;81.20;15.10;;;9.00;99.90;;;;;;5035177;28;20267;-82
2023/04/07 06:46:19;;;;;;;84.55;15.75;;;9.00;99.90;;;;;;5035722;28;20505;-82
2023/04/07 06:48:45;;;;;;;84.43;16.17;;;9.00;99.90;;;;;;5036123;28;20228;-82
2023/04/07 06:51:10;;;;;;;83.90;15.80;;;9.00;99.90;;;;;;5036325;28;20161;-82
2023/04/07 06:53:36;;;;;;;84.47;15.40;;;9.00;99.90;;;;;;5034752;28;20542;-82
2023/04/07 06:56:11;;;;;;;81.47;16.20;;;9.10;99.90;;;;;;5036376;28;20165;-82
2023/04/07 06:58:37;;;;;;;81.82;15.20;;;9.10;99.90;;;;;;5036278;28;20149;-82
2023/04/07 07:01:04;;;;;;;81.65;15.98;;;9.10;99.90;;;;;;5036290;28;20192;-82
2023/04/07 07:03:30;;;;;;;85.53;14.52;;;9.20;99.90;;;;;;5035637;28;20656;-82
2023/04/07 07:05:57;;;;;;;81.60;13.77;;;9.20;99.90;;;;;;5035709;28;20181;-82
2023/04/07 07:08:24;;;;;;;78.40;12.55;;;9.20;99.90;;;;;;5035624;28;20466;-82
2023/04/07 07:10:50;;;;;;;83.70;14.80;;;9.20;99.90;;;;;;5035974;28;20260;-82
2023/04/07 07:13:17;;;;;;;79.78;14.50;;;9.30;99.90;;;;;;5034389;28;20560;-82
2023/04/07 07:15:42;;;;;;;79.28;12.90;;;9.20;99.90;;;;;;5034439;28;20165;-82
2023/04/07 07:18:08;;;;;;;78.60;12.20;;;9.30;99.90;;;;;;5035625;28;20244;-82
2023/04/07 07:20:34;;;;;;;81.27;12.90;;;9.30;99.90;;;;;;5034165;28;20180;-82
2023/04/07 07:22:59;;;;;;;78.70;11.40;;;9.30;99.90;;;;;;5035723;28;20181;-82
2023/04/07 07:25:25;;;;;;;97.57;12.43;;;9.40;99.90;;;;;;5035691;28;20165;-82
2023/04/07 07:27:52;;;;;;;82.85;12.68;;;9.40;99.90;;;;;;5033498;28;20715;-82
2023/04/07 07:30:22;;;;;;;81.50;12.93;;;9.40;99.90;;;;;;5034022;28;20568;-82
2023/04/07 07:32:48;;;;;;;75.82;11.68;;;9.40;99.90;;;;;;5033698;28;20185;-82
2023/04/07 07:35:14;;;;;;;76.00;11.87;;;9.40;99.90;;;;;;5034042;28;20652;-82
2023/04/07 07:37:39;;;;;;;81.45;10.57;;;9.40;99.90;;;;;;5035337;28;20915;-82
2023/04/07 07:40:09;;;;;;;75.13;10.27;;;9.40;99.90;;;;;;5033910;28;20170;-82
2023/04/07 07:42:34;;;;;;;74.88;10.20;;;9.40;99.90;;;;;;5034053;28;20302;-82
2023/04/07 07:45:00;;;;;;;76.00;9.60;;;9.50;99.90;;;;;;5034003;28;20188;-82
2023/04/07 07:47:26;;;;;;;73.53;10.30;;;9.40;99.90;;;;;;5033915;28;20172;-82
2023/04/07 07:49:52;;;;;;;73.87;10.57;;;9.40;99.90;;;;;;5033886;28;20742;-82
2023/04/07 07:52:19;;;;;;;80.50;11.70;;;9.40;99.90;;;;;;5034938;28;20164;-82
2023/04/07 07:54:45;;;;;;;73.65;10.75;;;9.50;99.90;;;;;;5035225;28;20416;-82
2023/04/07 07:57:11;;;;;;;74.43;9.80;;;9.50;99.90;;;;;;5034969;28;20560;-81
2023/04/07 07:59:37;;;;;;;73.73;9.67;;;9.50;99.90;;;;;;5035519;28;20384;-82
2023/04/07 08:02:03;;;;;;;73.85;10.18;;;9.60;99.90;;;;;;5035074;28;20536;-82
2023/04/07 08:04:28;;;;;;;72.00;10.23;;;9.50;99.90;;;;;;5035033;28;20189;-82
2023/04/07 08:06:54;;;;;;;71.20;8.87;;;9.60;99.90;;;;;;5034587;28;20247;-82
2023/04/07 08:09:20;;;;;;;76.40;10.05;;;9.60;99.90;;;;;;5034735;28;20276;-82
2023/04/07 08:11:50;;;;;;;77.38;10.25;;;9.50;99.90;;;;;;5033580;28;20640;-82
2023/04/07 08:14:16;;;;;;;72.95;9.48;;;9.60;99.90;;;;;;5034779;28;20181;-82
2023/04/07 08:16:42;;;;;;;72.45;10.52;;;9.60;99.90;;;;;;5034779;28;20165;-82
2023/04/07 08:19:08;;;;;;;72.43;10.80;;;9.60;99.90;;;;;;5035087;28;20168;-82
2023/04/07 08:21:34;;;;;;;73.90;10.75;;;9.60;99.90;;;;;;5033727;28;20188;-82
2023/04/07 08:24:00;;;;;;;74.33;11.00;;;9.60;99.90;;;;;;5036904;28;20185;-83
2023/04/07 08:26:25;;;;;;;75.27;10.97;;;9.60;99.90;;;;;;5034548;28;20491;-82
2023/04/07 08:28:52;;;;;;;74.90;10.73;;;9.60;99.90;;;;;;5034634;28;20454;-82
2023/04/07 08:31:18;;;;;;;77.22;10.40;;;9.60;99.90;;;;;;5033563;28;20192;-82
2023/04/07 08:33:44;;;;;;;71.45;9.07;;;9.60;99.90;;;;;;5033884;28;20246;-82
2023/04/07 08:36:10;;;;;;;73.78;10.07;;;9.50;99.90;;;;;;5034688;28;20163;-83
2023/04/07 08:38:36;;;;;;;75.25;10.52;;;9.40;99.90;;;;;;5036886;28;20691;-82
2023/04/07 08:41:06;;;;;;;73.68;9.65;;;9.50;99.90;;;;;;5039060;28;20154;-82
2023/04/07 08:43:35;;;;;;;73.07;9.93;;;9.60;99.90;;;;;;5037100;28;20212;-82
2023/04/07 08:46:02;;;;;;;74.38;10.57;;;9.60;99.90;;;;;;5037400;28;20173;-82
2023/04/07 08:48:32;;;;;;;72.75;9.07;;;9.70;99.90;;;;;;5038827;28;20579;-82
2023/04/07 08:51:07;;;;;;;75.80;10.05;;;9.80;99.90;;;;;;5037215;28;20556;-82
2023/04/07 08:53:42;;;;;;;72.97;10.00;;;9.90;99.90;;;;;;5038593;28;20176;-82
2023/04/07 08:56:10;;;;;;;71.57;9.60;;;9.90;99.90;;;;;;5037278;28;20160;-82
2023/04/07 08:58:38;;;;;;;72.05;9.35;;;10.00;99.90;;;;;;5037247;28;20162;-82
2023/04/07 09:01:08;;;;;;;75.03;9.60;;;10.00;99.90;;;;;;5037989;28;20177;-80
2023/04/07 09:03:33;;;;;;;73.60;9.60;;;10.10;99.90;;;;;;5038146;28;20213;-82
2023/04/07 09:06:01;;;;;;;72.40;8.90;;;10.10;99.90;;;;;;5038368;28;20269;-82
2023/04/07 09:08:27;;;;;;;75.28;11.20;;;10.20;99.90;;;;;;5038346;28;20442;-82
2023/04/07 09:10:54;;;;;;;79.05;12.02;;;10.30;99.90;;;;;;5036754;28;20193;-83
2023/04/07 09:13:20;;;;;;;72.63;10.88;;;10.40;99.90;;;;;;5036585;28;20235;-82
2023/04/07 09:15:45;;;;;;;76.80;13.33;;;10.40;99.90;;;;;;5037445;28;20173;-83
2023/04/07 09:18:11;;;;;;;80.83;12.53;;;10.60;99.90;;;;;;5036755;28;20414;-82
2023/04/07 09:21:04;;;;;;;75.05;12.27;;;10.60;99.90;;;;;;5036705;28;20169;-83
2023/04/07 09:23:31;;;;;;;76.00;12.88;;;10.70;99.90;;;;;;5036237;28;20200;-83
2023/04/07 09:26:01;;;;;;;73.38;10.85;;;10.70;99.90;;;;;;5037742;28;20183;-82
2023/04/07 09:28:46;;;;;;;79.70;12.15;;;10.70;99.90;;;;;;5036536;28;20166;-82
2023/04/07 09:31:13;;;;;;;79.82;10.52;;;10.70;99.90;;;;;;5037025;28;20191;-83
2023/04/07 09:33:38;;;;;;;80.60;10.48;;;10.80;99.90;;;;;;5038042;28;20177;-82
2023/04/07 09:36:05;;;;;;;74.07;9.10;;;10.70;99.90;;;;;;5037905;28;20694;-82
2023/04/07 09:38:33;;;;;;;73.75;11.73;;;10.70;99.90;;;;;;5037915;28;20577;-83
2023/04/07 09:41:07;;;;;;;80.90;10.65;;;10.60;99.90;;;;;;5037908;28;20176;-82
2023/04/07 09:43:38;;;;;;;73.20;9.43;;;10.60;99.90;;;;;;5036675;28;20239;-82
2023/04/07 09:46:15;;;;;;;74.50;10.70;;;10.60;99.90;;;;;;5037751;28;20153;-83
2023/04/07 09:48:42;;;;;;;76.95;9.95;;;10.50;99.90;;;;;;5036401;28;20640;-83
2023/04/07 09:51:11;;;;;;;73.80;9.60;;;10.50;99.90;;;;;;5036861;28;20724;-83
2023/04/07 09:53:48;;;;;;;75.60;11.02;;;10.50;99.90;;;;;;5036134;28;20201;-83
2023/04/07 09:56:18;;;;;;;73.88;10.43;;;10.50;99.90;;;;;;5036541;28;20185;-83
2023/04/07 09:58:45;;;;;;;75.38;12.30;;;10.60;99.90;;;;;;5036901;28;20209;-82
2023/04/07 10:01:13;;;;;;;73.63;10.95;;;10.70;99.90;;;;;;5036315;28;20188;-83
2023/04/07 10:03:39;;;;;;;75.18;11.25;;;10.80;99.90;;;;;;5036330;28;20672;-83
2023/04/07 10:06:06;;;;;;;76.22;11.65;;;10.80;99.90;;;;;;5036157;28;20193;-83
2023/04/07 10:08:35;;;;;;;78.95;10.73;;;10.90;99.90;;;;;;5037397;28;20166;-82
2023/04/07 10:11:04;;;;;;;77.72;12.25;;;10.80;99.90;;;;;;5036039;28;20208;-82
2023/04/07 10:13:35;;;;;;;77.10;9.98;;;10.70;99.90;;;;;;5036587;28;20181;-83
2023/04/07 10:16:06;;;;;;;75.22;10.43;;;10.60;99.90;;;;;;5037906;28;20156;-83
2023/04/07 10:18:35;;;;;;;76.35;10.23;;;10.60;99.90;;;;;;5036069;28;20537;-83
2023/04/07 10:21:03;;;;;;;81.32;12.52;;;10.50;99.90;;;;;;5036965;28;20658;-83
2023/04/07 10:24:07;;;;;;;78.35;10.88;;;10.50;99.90;;;;;;5037039;28;20185;-83
2023/04/07 10:26:35;;;;;;;79.57;12.52;;;10.50;99.90;;;;;;5037616;28;20208;-83
2023/04/07 10:29:05;;;;;;;77.68;13.10;;;10.40;99.90;;;;;;5035997;28;20200;-81
2023/04/07 10:31:32;;;;;;;80.57;14.32;;;10.30;99.90;;;;;;5037029;28;20141;-82
2023/04/07 10:33:57;;;;;;;81.25;14.93;;;10.30;99.90;;;;;;5037153;28;20672;-82
2023/04/07 10:36:23;;;;;;;78.67;14.50;;;10.30;99.90;;;;;;5036096;28;20177;-83
2023/04/07 10:39:07;;;;;;;79.47;14.10;;;10.30;99.90;;;;;;5036031;28;20629;-83
2023/04/07 10:41:38;;;;;;;79.18;14.20;;;10.30;99.90;;;;;;5036749;28;20641;-82
2023/04/07 10:44:27;;;;;;;81.78;15.95;;;10.30;99.90;;;;;;5035796;28;20223;-83
2023/04/07 10:46:55;;;;;;;81.72;17.35;;;10.20;99.90;;;;;;5036772;28;20184;-83
2023/04/07 10:49:21;;;;;;;81.75;16.40;;;10.20;99.90;;;;;;5035547;28;20189;-82
2023/04/07 10:52:12;;;;;;;80.57;17.03;;;10.10;99.90;;;;;;5036783;28;20161;-83
2023/04/07 10:54:39;;;;;;;81.97;17.10;;;10.00;99.90;;;;;;5036969;28;20252;-83
2023/04/07 10:57:14;;;;;;;79.60;14.40;;;10.10;99.90;;;;;;5037606;28;20176;-83
2023/04/07 11:00:11;;;;;;;79.45;15.35;;;10.20;99.90;;;;;;5036638;28;20171;-82
2023/04/07 11:02:40;;;;;;;79.78;16.58;;;10.20;99.90;;;;;;5037010;28;20169;-82
2023/04/07 11:05:06;;;;;;;83.85;17.00;;;10.20;99.90;;;;;;5036811;28;20220;-83
2023/04/07 11:07:49;;;;;;;84.53;18.02;;;10.10;99.90;;;;;;5035783;28;20168;-83
2023/04/07 11:10:15;;;;;;;82.40;17.10;;;10.10;99.90;;;;;;5035181;28;20177;-83
2023/04/07 11:12:42;;;;;;;84.55;16.52;;;10.10;99.90;;;;;;5036708;28;20659;-83
2023/04/07 11:15:21;;;;;;;84.60;17.30;;;10.00;99.90;;;;;;5034912;28;20197;-82
2023/04/07 11:18:07;;;;;;;84.10;18.92;;;10.00;99.90;;;;;;5035336;28;20219;-83
2023/04/07 11:21:02;;;;;;;87.47;20.55;;;9.90;99.90;;;;;;5031754;28;20177;-83
2023/04/07 11:23:28;;;;;;;84.15;15.23;;;9.90;99.90;;;;;;5035311;28;20791;-83
2023/04/07 11:26:01;;;;;;;85.80;14.90;;;9.80;99.90;;;;;;5036704;28;20711;-83
2023/04/07 11:28:28;;;;;;;86.32;16.80;;;9.90;99.90;;;;;;5035521;28;20204;-83
2023/04/07 11:30:55;;;;;;;84.03;17.25;;;10.00;99.90;;;;;;5037270;28;20189;-83
2023/04/07 11:33:23;;;;;;;84.97;17.40;;;10.20;99.90;;;;;;5035309;28;20676;-83
2023/04/07 11:35:59;;;;;;;87.78;17.83;;;10.20;99.90;;;;;;5036145;28;20219;-83
2023/04/07 11:38:34;;;;;;;85.90;15.40;;;10.30;99.90;;;;;;5034860;28;20214;-83
2023/04/07 11:41:10;;;;;;;82.15;16.25;;;10.40;99.90;;;;;;5036324;28;20156;-83
2023/04/07 11:43:36;;;;;;;84.97;18.20;;;10.50;99.90;;;;;;5034377;28;20679;-83
2023/04/07 11:46:12;;;;;;;81.85;16.38;;;10.60;99.90;;;;;;5035901;28;20196;-83
2023/04/07 11:48:40;;;;;;;79.10;16.70;;;10.60;99.90;;;;;;5034499;28;20559;-83
2023/04/07 11:51:15;;;;;;;86.65;18.23;;;10.80;99.90;;;;;;5034183;28;20192;-83
2023/04/07 11:53:41;;;;;;;78.35;15.80;;;10.90;99.90;;;;;;5034281;28;20184;-83
2023/04/07 11:56:15;;;;;;;78.50;13.03;;;10.90;99.90;;;;;;5035834;28;20536;-83
2023/04/07 11:58:54;;;;;;;78.72;11.85;;;10.90;99.90;;;;;;5034433;28;20482;-83
2023/04/07 12:01:20;;;;;;;77.55;11.10;;;10.90;99.90;;;;;;5035241;28;20220;-83
2023/04/07 12:03:58;;;;;;;81.35;14.13;;;10.80;99.90;;;;;;5035388;28;20191;-83
2023/04/07 12:06:37;;;;;;;80.95;13.15;;;10.80;99.90;;;;;;5093742;22;20213;-77
2023/04/07 12:09:04;;;;;;;80.13;14.20;;;10.80;99.90;;;;;;5013465;28;20153;-77
2023/04/07 12:11:31;;;;;;;79.50;12.82;;;10.70;99.90;;;;;;5013907;28;20157;-76
2023/04/07 12:13:57;;;;;;;86.53;15.25;;;10.70;99.90;;;;;;5013067;28;20188;-77
2023/04/07 12:16:23;;;;;;;79.70;13.88;;;10.70;99.90;;;;;;5013711;28;20525;-77
2023/04/07 12:18:52;;;;;;;81.38;13.50;;;10.70;99.90;;;;;;5013371;28;20166;-76
2023/04/07 12:21:19;;;;;;;81.65;14.07;;;10.70;99.90;;;;;;5013563;28;20220;-76
2023/04/07 12:23:46;;;;;;;86.45;14.23;;;10.70;99.90;;;;;;5012097;28;20190;-76
2023/04/07 12:26:12;;;;;;;78.38;12.73;;;10.80;99.90;;;;;;5013347;28;20555;-77
2023/04/07 12:28:38;;;;;;;79.80;13.40;;;10.80;99.90;;;;;;5013603;28;20166;-76
2023/04/07 12:31:04;;;;;;;90.53;15.00;;;10.80;99.90;;;;;;5013350;28;20235;-76
2023/04/07 12:33:30;;;;;;;81.88;13.68;;;10.80;99.90;;;;;;5013197;28;20429;-77
2023/04/07 12:35:57;;;;;;;82.28;14.40;;;10.80;99.90;;;;;;5013528;28;20174;-77
2023/04/07 12:38:22;;;;;;;80.22;14.60;;;10.80;99.90;;;;;;5013588;28;20165;-77
2023/04/07 12:40:48;;;;;;;80.23;14.20;;;10.80;99.90;;;;;;5013344;28;20184;-77
2023/04/07 12:43:14;;;;;;;82.00;13.93;;;10.80;99.90;;;;;;5013106;28;20186;-77